Time;durP1;ratioP1;P1;durP2;ratioP2;P2;SDS_P1;SDS_P2;PMS_P1;PMS_P2;Temp;Humidity;BMP_temperature;BMP_pressure;BME280_temperature;BME280_humidity;BME280_pressure;Samples;Min_cycle;Max_cycle;Signal;HPM_P1;HPM_P2
2022/04/13 00:00:07;;;;;;;;;;;;;;;20.73;41.84;101001.63;5093729;28;19920;-92
2022/04/13 00:02:33;;;;;;;;;;;;;;;20.73;41.93;101003.56;5075430;28;19919;-92
2022/04/13 00:04:58;;;;;;;;;;;;;;;20.73;42.08;101009.88;5108048;28;19965;-93
2022/04/13 00:07:23;;;;;;;;;;;;;;;20.72;42.03;101008.25;5098414;28;19926;-92
2022/04/13 00:09:49;;;;;;;;;;;;;;;20.72;41.93;101002.75;5121959;28;20379;-92
2022/04/13 00:12:14;;;;;;;;;;;;;;;20.72;41.90;101008.25;5113394;28;19928;-92
2022/04/13 00:14:39;;;;;;;;;;;;;;;20.72;42.00;101019.22;5132107;27;19916;-92
2022/04/13 00:17:05;;;;;;;;;;;;;;;20.71;41.94;101012.13;5110353;28;20291;-91
2022/04/13 00:19:30;;;;;;;;;;;;;;;20.72;41.83;101007.44;5111562;27;20368;-92
2022/04/13 00:21:56;;;;;;;;;;;;;;;20.72;41.98;101012.94;5094641;28;19920;-88
2022/04/13 00:24:21;;;;;;;;;;;;;;;20.71;41.94;101017.63;5094917;28;19927;-92
2022/04/13 00:26:47;;;;;;;;;;;;;;;20.72;41.93;101018.44;5111309;27;20376;-92
2022/04/13 00:29:12;;;;;;;;;;;;;;;20.71;41.89;101020.38;5103544;28;19920;-91
2022/04/13 00:31:37;;;;;;;;;;;;;;;20.71;42.11;101030.50;5111924;28;19924;-92
2022/04/13 00:34:03;;;;;;;;;;;;;;;20.72;42.18;101023.91;5095142;28;19920;-91
2022/04/13 00:36:28;;;;;;;;;;;;;;;20.71;42.00;101030.50;5111936;27;19920;-92
2022/04/13 00:38:53;;;;;;;;;;;;;;;20.70;42.11;101029.69;5104618;28;19920;-91
2022/04/13 00:41:18;;;;;;;;;;;;;;;20.71;42.04;101036.00;5113642;28;19924;-91
2022/04/13 00:43:44;;;;;;;;;;;;;;;20.71;41.86;101036.00;5081910;28;19920;-92
2022/04/13 00:46:09;;;;;;;;;;;;;;;20.70;41.88;101037.13;5095063;28;19924;-92
2022/04/13 00:48:36;;;;;;;;;;;;;;;20.69;42.18;101036.31;5114577;28;19959;-92
2022/04/13 00:51:02;;;;;;;;;;;;;;;20.69;41.80;101039.06;5114865;28;19915;-91
2022/04/13 00:53:29;;;;;;;;;;;;;;;20.68;41.87;101040.16;5105793;28;20275;-93
2022/04/13 00:55:55;;;;;;;;;;;;;;;20.69;42.00;101046.50;5111808;27;19928;-91
2022/04/13 00:58:31;;;;;;;;;;;;;;;20.69;42.05;101052.78;5093838;28;20284;-92
2022/04/13 01:01:00;;;;;;;;;;;;;;;20.67;42.01;101049.53;5095254;28;19916;-87
2022/04/13 01:03:27;;;;;;;;;;;;;;;20.68;42.06;101058.56;5077312;28;19923;-92
2022/04/13 01:05:53;;;;;;;;;;;;;;;20.68;42.08;101055.81;5111686;28;19930;-93
2022/04/13 01:08:19;;;;;;;;;;;;;;;20.67;41.94;101059.69;5093270;28;20380;-93
2022/04/13 01:10:45;;;;;;;;;;;;;;;20.67;41.92;101070.69;5095640;28;19930;-92
2022/04/13 01:13:11;;;;;;;;;;;;;;;20.66;42.15;101069.03;5076663;28;20379;-91
2022/04/13 01:15:36;;;;;;;;;;;;;;;20.66;42.19;101066.28;5096944;28;19916;-94
2022/04/13 01:18:02;;;;;;;;;;;;;;;20.65;41.94;101065.47;5131189;27;19928;-91
2022/04/13 01:20:28;;;;;;;;;;;;;;;20.65;42.28;101073.72;5096278;28;19958;-91
2022/04/13 01:22:53;;;;;;;;;;;;;;;20.66;41.90;101069.03;5080847;28;19937;-92
2022/04/13 01:25:19;;;;;;;;;;;;;;;20.65;42.09;101073.72;5106324;28;19951;-91
2022/04/13 01:27:44;;;;;;;;;;;;;;;20.65;41.97;101073.72;5118594;27;20372;-90
2022/04/13 01:30:10;;;;;;;;;;;;;;;20.65;42.19;101070.16;5110200;28;19916;-91
2022/04/13 01:32:36;;;;;;;;;;;;;;;20.64;42.20;101077.59;5094160;28;20021;-92
2022/04/13 01:35:01;;;;;;;;;;;;;;;20.64;41.97;101091.31;5094667;28;19990;-89
2022/04/13 01:37:26;;;;;;;;;;;;;;;20.63;41.89;101095.16;5110532;28;19923;-93
2022/04/13 01:39:52;;;;;;;;;;;;;;;20.64;42.08;101093.25;5097499;28;20412;-90
2022/04/13 01:42:17;;;;;;;;;;;;;;;20.63;42.13;101097.09;5093995;28;19924;-92
2022/04/13 01:44:42;;;;;;;;;;;;;;;20.63;42.20;101086.09;5101826;28;19926;-92
2022/04/13 01:47:08;;;;;;;;;;;;;;;20.63;41.94;101094.34;5111121;28;20006;-92
2022/04/13 01:49:34;;;;;;;;;;;;;;;20.62;42.01;101101.78;5095995;28;19916;-91
2022/04/13 01:52:00;;;;;;;;;;;;;;;20.62;42.30;101100.97;5129666;27;20402;-89
2022/04/13 01:54:25;;;;;;;;;;;;;;;20.61;42.31;101097.38;5112105;28;19973;-91
2022/04/13 01:56:50;;;;;;;;;;;;;;;20.62;42.24;101101.78;5094649;28;19946;-93
2022/04/13 01:59:15;;;;;;;;;;;;;;;20.61;42.27;101105.63;5109840;28;19959;-91
2022/04/13 02:01:43;;;;;;;;;;;;;;;20.62;42.19;101103.72;5102690;28;20323;-92
2022/04/13 02:04:15;;;;;;;;;;;;;;;20.62;41.96;101103.72;5095797;28;19958;-92
2022/04/13 02:06:41;;;;;;;;;;;;;;;20.60;42.22;101109.47;5102012;28;19924;-92
2022/04/13 02:09:06;;;;;;;;;;;;;;;20.59;41.98;101110.63;5126148;27;20389;-92
2022/04/13 02:11:31;;;;;;;;;;;;;;;20.60;42.22;101108.69;5116005;28;19941;-91
2022/04/13 02:13:56;;;;;;;;;;;;;;;20.59;42.16;101113.34;5136062;28;19919;-88
2022/04/13 02:16:22;;;;;;;;;;;;;;;20.60;42.15;101116.91;5143923;27;19924;-90
2022/04/13 02:18:47;;;;;;;;;;;;;;;20.59;42.18;101124.34;5145806;27;19919;-89
2022/04/13 02:21:12;;;;;;;;;;;;;;;20.59;42.11;101132.56;5142783;27;19967;-90
2022/04/13 02:23:37;;;;;;;;;;;;;;;20.60;42.30;101125.16;5100449;28;19920;-91
2022/04/13 02:26:03;;;;;;;;;;;;;;;20.59;42.14;101127.06;5094918;28;19924;-89
2022/04/13 02:28:28;;;;;;;;;;;;;;;20.59;42.01;101126.25;5114661;28;19962;-91
2022/04/13 02:30:53;;;;;;;;;;;;;;;20.58;42.07;101124.63;5113835;28;19920;-92
2022/04/13 02:33:20;;;;;;;;;;;;;;;20.59;42.05;101129.00;5128716;27;19916;-91
2022/04/13 02:35:45;;;;;;;;;;;;;;;20.58;42.32;101128.19;5111348;28;19930;-93
2022/04/13 02:38:10;;;;;;;;;;;;;;;20.57;42.39;101132.06;5112309;27;19924;-92
2022/04/13 02:40:36;;;;;;;;;;;;;;;20.57;42.23;101132.06;5093585;28;19916;-92
2022/04/13 02:43:01;;;;;;;;;;;;;;;20.58;42.33;101135.59;5109685;27;19920;-91
2022/04/13 02:45:26;;;;;;;;;;;;;;;20.57;42.32;101126.56;5110044;28;19919;-93
2022/04/13 02:47:51;;;;;;;;;;;;;;;20.57;42.30;101125.75;5120835;27;19946;-93
2022/04/13 02:50:17;;;;;;;;;;;;;;;20.57;42.34;101128.50;5129087;27;19920;-92
2022/04/13 02:52:42;;;;;;;;;;;;;;;20.57;42.07;101133.97;5129404;27;20264;-91
2022/04/13 02:55:08;;;;;;;;;;;;;;;20.57;42.31;101131.25;5113049;28;19919;-90
2022/04/13 02:57:34;;;;;;;;;;;;;;;20.56;42.02;101141.38;5108484;28;19920;-92
2022/04/13 02:59:59;;;;;;;;;;;;;;;20.56;42.06;101140.56;5119554;27;19927;-92
2022/04/13 03:02:29;;;;;;;;;;;;;;;20.55;42.13;101137.00;5092878;28;19924;-91
2022/04/13 03:04:54;;;;;;;;;;;;;;;20.55;42.21;101134.28;5108711;28;19927;-92
2022/04/13 03:07:19;;;;;;;;;;;;;;;20.55;42.11;101137.00;5108814;28;19920;-91
2022/04/13 03:09:44;;;;;;;;;;;;;;;20.55;42.27;101136.22;5110148;28;19928;-92
2022/04/13 03:12:10;;;;;;;;;;;;;;;20.55;42.09;101126.03;5092668;28;20011;-91
2022/04/13 03:14:36;;;;;;;;;;;;;;;20.55;42.20;101138.97;5109098;28;19924;-93
2022/04/13 03:17:01;;;;;;;;;;;;;;;20.54;42.20;101135.38;5105516;28;19916;-92
2022/04/13 03:19:26;;;;;;;;;;;;;;;20.53;42.42;101142.75;5124945;28;20536;-92
2022/04/13 03:21:53;;;;;;;;;;;;;;;20.53;42.31;101140.03;5105912;28;19923;-91
2022/04/13 03:24:19;;;;;;;;;;;;;;;20.52;42.15;101143.88;5114769;28;19970;-93
2022/04/13 03:26:44;;;;;;;;;;;;;;;20.53;42.31;101150.19;5105228;28;19923;-92
2022/04/13 03:29:09;;;;;;;;;;;;;;;20.53;42.27;101144.69;5113293;28;19920;-90
2022/04/13 03:31:35;;;;;;;;;;;;;;;20.52;42.08;101152.13;5108257;28;19945;-90
2022/04/13 03:34:00;;;;;;;;;;;;;;;20.53;42.22;101144.69;5091585;28;20003;-92
2022/04/13 03:36:25;;;;;;;;;;;;;;;20.52;42.14;101143.09;5104405;28;19920;-91
2022/04/13 03:38:50;;;;;;;;;;;;;;;20.52;42.23;101145.81;5128216;28;20394;-93
2022/04/13 03:41:16;;;;;;;;;;;;;;;20.51;42.04;101153.25;5128539;28;19931;-92
2022/04/13 03:43:41;;;;;;;;;;;;;;;20.51;42.15;101141.44;5129513;28;20006;-91
2022/04/13 03:46:06;;;;;;;;;;;;;;;20.50;42.11;101151.59;5096103;28;20379;-90
2022/04/13 03:48:31;;;;;;;;;;;;;;;20.51;42.31;101155.16;5119917;27;19924;-91
2022/04/13 03:50:57;;;;;;;;;;;;;;;20.50;42.28;101150.78;5096974;28;20034;-92
2022/04/13 03:53:23;;;;;;;;;;;;;;;20.49;42.15;101152.72;5102567;28;19967;-91
2022/04/13 03:55:48;;;;;;;;;;;;;;;20.49;42.25;101152.72;5114457;28;20390;-93
2022/04/13 03:58:13;;;;;;;;;;;;;;;20.49;42.27;101160.16;5122094;27;19919;-93
2022/04/13 04:00:39;;;;;;;;;;;;;;;20.49;42.15;101165.63;5132010;27;19920;-92
2022/04/13 04:03:04;;;;;;;;;;;;;;;20.48;42.13;101161.25;5116355;28;19955;-90
2022/04/13 04:05:29;;;;;;;;;;;;;;;20.48;42.49;101173.03;5115144;28;19952;-92
2022/04/13 04:07:55;;;;;;;;;;;;;;;20.47;42.22;101173.34;5123538;27;19934;-92
2022/04/13 04:10:20;;;;;;;;;;;;;;;20.48;42.52;101169.47;5099060;28;19925;-93
2022/04/13 04:12:45;;;;;;;;;;;;;;;20.48;42.15;101178.53;5109359;27;20011;-92
2022/04/13 04:15:11;;;;;;;;;;;;;;;20.48;42.41;101181.25;5075792;28;19916;-87
2022/04/13 04:17:36;;;;;;;;;;;;;;;20.47;42.46;101182.41;5109394;27;19954;-92
2022/04/13 04:20:06;;;;;;;;;;;;;;;20.48;42.30;101173.03;5123192;27;19951;-91
2022/04/13 04:22:31;;;;;;;;;;;;;;;20.47;42.03;101185.13;5094493;28;19916;-89
2022/04/13 04:25:00;;;;;;;;;;;;;;;20.48;42.25;101184.00;5112016;28;19920;-90
2022/04/13 04:27:25;;;;;;;;;;;;;;;20.48;42.30;101192.25;5093459;28;19930;-92
2022/04/13 04:29:50;;;;;;;;;;;;;;;20.47;42.24;101189.81;5109888;28;19944;-92
2022/04/13 04:32:15;;;;;;;;;;;;;;;20.47;42.29;101201.59;5087061;28;19920;-93
2022/04/13 04:34:41;;;;;;;;;;;;;;;20.47;42.21;101198.84;5132460;27;20284;-93
2022/04/13 04:37:06;;;;;;;;;;;;;;;20.46;42.23;101197.25;5110513;28;19992;-92
2022/04/13 04:39:31;;;;;;;;;;;;;;;20.46;42.09;101216.44;5096367;28;19931;-92
2022/04/13 04:41:57;;;;;;;;;;;;;;;20.46;42.50;101207.38;5126581;27;19927;-93
2022/04/13 04:44:22;;;;;;;;;;;;;;;20.46;42.27;101212.88;5127479;27;19924;-91
2022/04/13 04:46:47;;;;;;;;;;;;;;;20.46;42.12;101226.59;5085157;28;20356;-90
2022/04/13 04:49:12;;;;;;;;;;;;;;;20.45;42.14;101225.78;5109050;28;19947;-88
2022/04/13 04:51:38;;;;;;;;;;;;;;;20.45;42.18;101222.22;5126556;27;20364;-91
2022/04/13 04:54:03;;;;;;;;;;;;;;;20.45;42.33;101224.97;5087185;28;19974;-94
2022/04/13 04:56:29;;;;;;;;;;;;;;;20.44;42.08;101226.91;5094924;28;20368;-92
2022/04/13 04:58:55;;;;;;;;;;;;;;;20.44;42.28;101231.59;5127546;27;20383;-92
2022/04/13 05:01:21;;;;;;;;;;;;;;;20.43;42.34;101229.94;5099255;28;19916;-93
2022/04/13 05:03:49;;;;;;;;;;;;;;;20.43;42.21;101230.75;5098433;28;19927;-92
2022/04/13 05:06:25;;;;;;;;;;;;;;;20.43;42.18;101232.66;5082317;28;19917;-89
2022/04/13 05:08:51;;;;;;;;;;;;;;;20.42;42.29;101228.31;5112472;28;19964;-92
2022/04/13 05:11:17;;;;;;;;;;;;;;;20.42;42.42;101240.09;5084418;28;20014;-90
2022/04/13 05:13:45;;;;;;;;;;;;;;;20.42;42.33;101237.34;5144557;27;19924;-92
2022/04/13 05:16:11;;;;;;;;;;;;;;;20.42;42.21;101242.03;5133233;28;19919;-92
2022/04/13 05:18:36;;;;;;;;;;;;;;;20.41;42.40;101245.88;5125537;28;19994;-92
2022/04/13 05:21:03;;;;;;;;;;;;;;;20.40;42.09;101253.28;5110526;28;19927;-90
2022/04/13 05:23:28;;;;;;;;;;;;;;;20.41;42.20;101265.06;5083125;28;19916;-91
2022/04/13 05:25:53;;;;;;;;;;;;;;;20.41;42.22;101262.34;5100075;28;19923;-93
2022/04/13 05:28:18;;;;;;;;;;;;;;;20.40;42.25;101264.25;5114152;27;19920;-89
2022/04/13 05:30:44;;;;;;;;;;;;;;;20.40;42.29;101261.53;5118410;27;19924;-90
2022/04/13 05:33:09;;;;;;;;;;;;;;;20.40;42.22;101257.97;5097204;28;19924;-87
2022/04/13 05:35:34;;;;;;;;;;;;;;;20.42;42.67;101263.97;5109822;28;19924;-85
2022/04/13 05:38:02;;;;;;;;;;;;;;;20.43;42.47;101268.34;5094288;28;20408;-85
2022/04/13 05:40:28;;;;;;;;;;;;;;;20.43;42.63;101263.66;5125169;27;19932;-86
2022/04/13 05:42:53;;;;;;;;;;;;;;;20.45;42.53;101271.63;5095633;28;20252;-84
2022/04/13 05:45:18;;;;;;;;;;;;;;;20.46;42.81;101276.81;5100433;28;19923;-92
2022/04/13 05:47:44;;;;;;;;;;;;;;;20.47;42.76;101281.19;5091728;28;20001;-94
2022/04/13 05:50:10;;;;;;;;;;;;;;;20.48;42.65;101292.97;5127078;27;19920;-93
2022/04/13 05:52:35;;;;;;;;;;;;;;;20.50;42.68;101301.72;5116487;28;19931;-95
2022/04/13 05:55:01;;;;;;;;;;;;;;;20.48;42.95;101293.78;5103184;28;19991;-93
2022/04/13 05:57:26;;;;;;;;;;;;;;;20.50;43.04;101308.03;5135597;27;20378;-86
2022/04/13 05:59:51;;;;;;;;;;;;;;;20.50;43.13;101304.47;5133518;27;19920;-95
2022/04/13 06:02:17;;;;;;;;;;;;;;;20.51;42.99;101309.69;5135166;27;19940;-87
2022/04/13 06:04:44;;;;;;;;;;;;;;;20.50;43.02;101305.28;5191474;22;19903;-89
2022/04/13 06:10:01;;;;;;;;;;;;;;;20.52;42.80;101316.78;5229694;23;20246;-94
2022/04/13 06:15:04;;;;;;;;;;;;;;;20.53;42.79;101323.91;5620824;22;19933;-87
2022/04/13 06:17:30;;;;;;;;;;;;;;;20.53;42.91;101325.81;5024853;28;19908;-96
2022/04/13 06:19:55;;;;;;;;;;;;;;;20.54;43.08;101327.47;5001570;28;19933;-88
2022/04/13 06:22:20;;;;;;;;;;;;;;;20.54;42.87;101335.72;4998966;28;19921;-85
2022/04/13 06:24:51;;;;;;;;;;;;;;;20.55;43.00;101333.81;5019564;28;19929;-95
2022/04/13 06:27:16;;;;;;;;;;;;;;;20.56;43.25;101340.91;5014102;28;19988;-93
2022/04/13 06:29:49;;;;;;;;;;;;;;;20.56;42.98;101333.50;5014293;28;19949;-85
2022/04/13 06:32:14;;;;;;;;;;;;;;;20.57;43.08;101334.34;4993427;28;19928;-91
2022/04/13 06:34:41;;;;;;;;;;;;;;;20.58;42.85;101335.97;5011795;28;19921;-88
2022/04/13 06:37:06;;;;;;;;;;;;;;;20.58;43.09;101342.25;5014649;28;19929;-90
2022/04/13 06:39:32;;;;;;;;;;;;;;;20.59;42.92;101343.06;5022779;28;19928;-86
2022/04/13 06:41:57;;;;;;;;;;;;;;;20.59;43.03;101341.16;5026963;28;19917;-90
2022/04/13 06:44:22;;;;;;;;;;;;;;;20.60;42.77;101351.03;4993137;28;19965;-89
2022/04/13 06:46:47;;;;;;;;;;;;;;;20.62;43.26;101353.47;5011879;28;19930;-90
2022/04/13 06:49:13;;;;;;;;;;;;;;;20.64;42.91;101364.97;5009836;28;19941;-89
2022/04/13 06:51:38;;;;;;;;;;;;;;;20.64;42.81;101371.28;5022467;28;20039;-86
2022/04/13 06:54:03;;;;;;;;;;;;;;;20.65;43.04;101364.66;4993818;28;19944;-84
2022/04/13 06:56:29;;;;;;;;;;;;;;;20.66;42.92;101371.81;5022590;28;19921;-85
2022/04/13 06:58:54;;;;;;;;;;;;;;;20.67;43.01;101376.19;5023603;28;19925;-84
2022/04/13 07:01:19;;;;;;;;;;;;;;;20.68;42.76;101366.00;4988724;28;19926;-86
2022/04/13 07:03:45;;;;;;;;;;;;;;;20.70;42.82;101378.31;4992220;28;19964;-88
2022/04/13 07:06:10;;;;;;;;;;;;;;;20.71;42.97;101379.13;5001824;28;20380;-87
2022/04/13 07:08:35;;;;;;;;;;;;;;;20.72;43.00;101383.53;5006205;28;19929;-87
2022/04/13 07:11:00;;;;;;;;;;;;;;;20.74;42.99;101381.31;5006153;28;20119;-85
2022/04/13 07:13:26;;;;;;;;;;;;;;;20.75;42.93;101382.94;5013923;28;19921;-86
2022/04/13 07:15:52;;;;;;;;;;;;;;;20.75;42.72;101380.19;5014682;28;19983;-84
2022/04/13 07:18:18;;;;;;;;;;;;;;;20.78;42.74;101389.75;4995947;28;19929;-85
2022/04/13 07:20:43;;;;;;;;;;;;;;;20.77;42.69;101385.41;5009101;28;20345;-89
2022/04/13 07:23:08;;;;;;;;;;;;;;;20.78;43.07;101400.75;4995173;28;20006;-90
2022/04/13 07:25:34;;;;;;;;;;;;;;;20.78;42.83;101403.50;5015578;28;19934;-90
2022/04/13 07:27:59;;;;;;;;;;;;;;;20.79;42.97;101402.38;5010261;28;19933;-90
2022/04/13 07:30:24;;;;;;;;;;;;;;;20.80;42.78;101409.50;5009763;28;20338;-86
2022/04/13 07:32:52;;;;;;;;;;;;;;;20.80;42.78;101410.31;5010233;28;20333;-87
2022/04/13 07:35:17;;;;;;;;;;;;;;;20.82;42.63;101412.78;5011154;28;19917;-86
2022/04/13 07:37:43;;;;;;;;;;;;;;;20.83;42.95;101406.97;5008036;28;19976;-85
2022/04/13 07:40:12;;;;;;;;;;;;;;;20.84;43.00;101410.53;5009974;28;20384;-86
2022/04/13 07:42:38;;;;;;;;;;;;;;;20.85;42.84;101421.22;5024528;28;19960;-85
2022/04/13 07:45:04;;;;;;;;;;;;;;;20.86;42.66;101424.78;5027442;28;20404;-90
2022/04/13 07:47:29;;;;;;;;;;;;;;;20.86;42.90;101420.09;5008801;28;19924;-86
2022/04/13 07:49:54;;;;;;;;;;;;;;;20.87;42.89;101426.44;4993125;28;19926;-90
2022/04/13 07:52:20;;;;;;;;;;;;;;;20.88;42.83;101431.63;5007485;28;20461;-87
2022/04/13 07:54:45;;;;;;;;;;;;;;;20.89;42.66;101433.28;5013410;28;19925;-87
2022/04/13 07:57:10;;;;;;;;;;;;;;;20.91;42.77;101427.47;4996867;28;19944;-90
2022/04/13 07:59:36;;;;;;;;;;;;;;;20.91;42.87;101427.47;5006699;28;20278;-87
2022/04/13 08:02:02;;;;;;;;;;;;;;;20.92;42.99;101434.59;5004072;28;20226;-81
2022/04/13 08:04:27;;;;;;;;;;;;;;;20.93;42.91;101433.47;5004188;28;19929;-85
2022/04/13 08:06:54;;;;;;;;;;;;;;;20.94;42.92;101432.34;5014168;28;19921;-83
2022/04/13 08:09:19;;;;;;;;;;;;;;;20.94;42.94;101440.59;5008522;28;20384;-84
2022/04/13 08:11:45;;;;;;;;;;;;;;;20.95;42.50;101439.50;4997200;28;19921;-84
2022/04/13 08:14:11;;;;;;;;;;;;;;;20.95;42.87;101436.75;5019813;28;19967;-86
2022/04/13 08:16:36;;;;;;;;;;;;;;;20.96;42.85;101438.38;5010930;28;20336;-87
2022/04/13 08:19:01;;;;;;;;;;;;;;;20.96;42.80;101441.97;4990041;28;20349;-84
2022/04/13 08:21:27;;;;;;;;;;;;;;;20.96;42.55;101439.22;4990930;28;19922;-87
2022/04/13 08:23:52;;;;;;;;;;;;;;;20.98;42.73;101443.59;5007735;28;19976;-88
2022/04/13 08:26:17;;;;;;;;;;;;;;;20.99;42.63;101450.69;4992526;28;19921;-82
2022/04/13 08:28:42;;;;;;;;;;;;;;;20.98;42.68;101458.13;5006398;28;19928;-85
2022/04/13 08:31:09;;;;;;;;;;;;;;;21.00;43.02;101452.34;5004606;28;19925;-85
2022/04/13 08:33:34;;;;;;;;;;;;;;;21.01;42.69;101460.28;5024516;28;19921;-84
2022/04/13 08:36:00;;;;;;;;;;;;;;;21.02;42.84;101466.63;4992713;28;20401;-86
2022/04/13 08:38:25;;;;;;;;;;;;;;;21.02;42.65;101456.44;5006673;28;19925;-87
2022/04/13 08:41:00;;;;;;;;;;;;;;;21.04;42.92;101453.38;4993282;28;19925;-86
2022/04/13 08:43:29;;;;;;;;;;;;;;;21.03;42.87;101458.06;5010652;28;20510;-89
2022/04/13 08:45:55;;;;;;;;;;;;;;;21.05;42.78;101466.81;5011723;28;19952;-89
2022/04/13 08:48:24;;;;;;;;;;;;;;;21.05;42.73;101466.81;5016752;28;19925;-86
2022/04/13 08:50:56;;;;;;;;;;;;;;;21.04;42.79;101473.44;5002675;28;19921;-90
2022/04/13 08:53:24;;;;;;;;;;;;;;;21.06;42.79;101471.19;5016211;28;20376;-89
2022/04/13 08:55:53;;;;;;;;;;;;;;;21.06;42.78;101476.69;5018672;28;20177;-88
2022/04/13 08:58:37;;;;;;;;;;;;;;;21.08;42.91;101481.91;5010026;28;19969;-90
2022/04/13 09:01:04;;;;;;;;;;;;;;;21.08;42.84;101477.22;5007559;28;19940;-88
2022/04/13 09:03:32;;;;;;;;;;;;;;;21.07;43.07;101486.59;5011705;28;19932;-88
2022/04/13 09:05:58;;;;;;;;;;;;;;;21.08;42.83;101485.47;5016309;28;20358;-94
2022/04/13 09:08:36;;;;;;;;;;;;;;;21.09;43.08;101483.53;5022685;28;19925;-85
2022/04/13 09:11:02;;;;;;;;;;;;;;;21.09;43.10;101498.09;5011023;28;19926;-87
2022/04/13 09:13:30;;;;;;;;;;;;;;;21.09;43.06;101506.34;5009508;28;19963;-83
2022/04/13 09:15:56;;;;;;;;;;;;;;;21.10;43.15;101501.66;5013622;28;19928;-93
2022/04/13 09:18:22;;;;;;;;;;;;;;;21.10;42.88;101509.91;5010906;28;19921;-89
2022/04/13 09:20:47;;;;;;;;;;;;;;;21.10;42.94;101515.38;4988973;28;20020;-83
2022/04/13 09:23:13;;;;;;;;;;;;;;;21.10;43.07;101518.13;5010002;28;19924;-86
2022/04/13 09:25:40;;;;;;;;;;;;;;;21.12;43.12;101521.41;5007907;28;19924;-89
2022/04/13 09:28:05;;;;;;;;;;;;;;;21.12;43.01;101527.72;5006119;28;19917;-88
2022/04/13 09:30:31;;;;;;;;;;;;;;;21.12;43.09;101530.47;5010291;28;20282;-89
2022/04/13 09:32:57;;;;;;;;;;;;;;;21.13;42.92;101529.34;5009113;28;19921;-89
2022/04/13 09:35:22;;;;;;;;;;;;;;;21.13;42.95;101529.34;5006171;28;20004;-87
2022/04/13 09:37:48;;;;;;;;;;;;;;;21.12;42.94;101533.22;5014394;28;19921;-88
2022/04/13 09:40:31;;;;;;;;;;;;;;;21.14;42.81;101541.97;5011262;28;20344;-83
2022/04/13 09:43:03;;;;;;;;;;;;;;;21.15;43.24;101545.53;5010546;28;19917;-88
2022/04/13 09:45:32;;;;;;;;;;;;;;;21.14;43.14;101541.97;5011703;28;20370;-86
2022/04/13 09:47:58;;;;;;;;;;;;;;;21.13;42.89;101537.59;5014854;28;19957;-91
2022/04/13 09:50:25;;;;;;;;;;;;;;;21.14;42.97;101544.72;5009203;28;19968;-86
2022/04/13 09:52:52;;;;;;;;;;;;;;;21.14;42.88;101552.13;5009126;28;20004;-87
2022/04/13 09:55:21;;;;;;;;;;;;;;;21.15;43.07;101540.03;5017060;28;19967;-86
2022/04/13 09:57:46;;;;;;;;;;;;;;;21.15;43.02;101546.34;5015624;28;19921;-85
2022/04/13 10:00:12;;;;;;;;;;;;;;;21.16;43.13;101545.22;5013152;28;20284;-85
2022/04/13 10:02:38;;;;;;;;;;;;;;;21.16;43.26;101547.97;4998979;28;19968;-85
2022/04/13 10:05:04;;;;;;;;;;;;;;;21.16;42.93;101553.47;5009068;28;19918;-84
2022/04/13 10:07:29;;;;;;;;;;;;;;;21.17;43.09;101554.31;5016153;28;19928;-85
2022/04/13 10:09:54;;;;;;;;;;;;;;;21.17;43.19;101552.38;5009403;28;20095;-88
2022/04/13 10:12:19;;;;;;;;;;;;;;;21.17;43.11;101552.38;5014221;28;19925;-88
2022/04/13 10:14:46;;;;;;;;;;;;;;;21.18;42.97;101554.00;5022150;28;19929;-89
2022/04/13 10:17:12;;;;;;;;;;;;;;;21.18;43.11;101559.50;4994440;28;20400;-86
2022/04/13 10:19:38;;;;;;;;;;;;;;;21.20;43.16;101561.16;5009339;28;19925;-88
2022/04/13 10:22:04;;;;;;;;;;;;;;;21.20;43.21;101561.16;5022642;28;20780;-88
2022/04/13 10:24:30;;;;;;;;;;;;;;;21.20;43.13;101563.91;5015540;28;20401;-90
2022/04/13 10:26:59;;;;;;;;;;;;;;;21.20;43.09;101561.16;4991357;28;20398;-86
2022/04/13 10:29:26;;;;;;;;;;;;;;;21.21;43.27;101560.03;5000382;28;19972;-87
2022/04/13 10:32:03;;;;;;;;;;;;;;;21.21;43.10;101571.81;5015676;28;19967;-87
2022/04/13 10:34:29;;;;;;;;;;;;;;;21.21;43.07;101565.53;5020197;28;19928;-87
2022/04/13 10:36:54;;;;;;;;;;;;;;;21.21;43.36;101568.28;5021872;28;19971;-86
2022/04/13 10:39:19;;;;;;;;;;;;;;;21.21;43.03;101565.53;4999979;28;19921;-88
2022/04/13 10:41:45;;;;;;;;;;;;;;;21.21;43.01;101562.78;5013129;28;20285;-90
2022/04/13 10:44:11;;;;;;;;;;;;;;;21.22;43.22;101558.91;4999851;28;19922;-89
2022/04/13 10:46:37;;;;;;;;;;;;;;;21.22;43.42;101558.91;5015010;28;20091;-88
2022/04/13 10:49:07;;;;;;;;;;;;;;;21.22;43.15;101556.16;5009928;28;20817;-84
2022/04/13 10:51:34;;;;;;;;;;;;;;;21.22;43.34;101562.50;5006875;28;19922;-86
2022/04/13 10:54:01;;;;;;;;;;;;;;;21.23;43.39;101571.53;5009732;28;20297;-86
2022/04/13 10:56:27;;;;;;;;;;;;;;;21.23;43.29;101582.53;5019563;28;19929;-85
2022/04/13 10:59:07;;;;;;;;;;;;;;;21.22;43.29;101581.72;5007512;28;19925;-85
2022/04/13 11:01:38;;;;;;;;;;;;;;;21.22;43.17;101591.88;5018832;28;20366;-82
2022/04/13 11:04:04;;;;;;;;;;;;;;;21.23;43.19;101588.03;5013529;28;20369;-83
2022/04/13 11:06:30;;;;;;;;;;;;;;;21.23;43.23;101599.03;5013561;28;20123;-84
2022/04/13 11:09:04;;;;;;;;;;;;;;;21.23;43.32;101607.25;5009691;28;20083;-86
2022/04/13 11:11:31;;;;;;;;;;;;;;;21.23;43.33;101599.03;5023121;28;19929;-83
2022/04/13 11:13:56;;;;;;;;;;;;;;;21.23;43.31;101599.03;5009862;28;20373;-83
2022/04/13 11:16:22;;;;;;;;;;;;;;;21.23;43.32;101604.50;5007845;28;19931;-83
2022/04/13 11:19:06;;;;;;;;;;;;;;;21.22;43.29;101594.63;5005437;28;20408;-84
2022/04/13 11:21:32;;;;;;;;;;;;;;;21.21;43.34;101596.56;5002847;28;19922;-84
2022/04/13 11:23:58;;;;;;;;;;;;;;;21.21;43.52;101595.75;5011062;28;19947;-84
2022/04/13 11:26:25;;;;;;;;;;;;;;;21.20;43.54;101600.44;4991339;28;20376;-84
2022/04/13 11:29:09;;;;;;;;;;;;;;;21.20;43.17;101602.38;5006348;28;20068;-84
2022/04/13 11:31:54;;;;;;;;;;;;;;;21.20;43.21;101599.63;5005501;28;19922;-84
2022/04/13 11:34:26;;;;;;;;;;;;;;;21.18;43.56;101597.16;5010777;28;19964;-84
2022/04/13 11:36:52;;;;;;;;;;;;;;;21.17;43.43;101598.28;5006108;28;19948;-94
2022/04/13 11:39:37;;;;;;;;;;;;;;;21.17;43.29;101599.09;5007082;28;20399;-89
2022/04/13 11:42:02;;;;;;;;;;;;;;;21.17;43.70;101599.09;5004713;28;19918;-90
2022/04/13 11:44:45;;;;;;;;;;;;;;;21.19;43.38;101601.53;4995088;28;19932;-90
2022/04/13 11:47:18;;;;;;;;;;;;;;;21.20;43.49;101605.91;5009226;28;19922;-86
2022/04/13 11:49:56;;;;;;;;;;;;;;;21.20;43.56;101607.84;5018972;28;19917;-87
2022/04/13 11:52:37;;;;;;;;;;;;;;;21.20;43.60;101616.91;5013429;28;19928;-88
2022/04/13 11:55:04;;;;;;;;;;;;;;;21.20;43.35;101618.84;5013158;28;20104;-87
2022/04/13 11:57:49;;;;;;;;;;;;;;;21.20;43.47;101625.16;5011495;28;19925;-86
2022/04/13 12:00:33;;;;;;;;;;;;;;;21.21;43.54;101631.47;5016114;28;19951;-86
2022/04/13 12:02:59;;;;;;;;;;;;;;;21.20;43.30;101630.66;5005533;28;19924;-85
2022/04/13 12:05:24;;;;;;;;;;;;;;;21.21;43.47;101624.03;5006991;28;19922;-86
2022/04/13 12:07:51;;;;;;;;;;;;;;;21.21;43.45;101625.97;4994283;28;19952;-85
2022/04/13 12:10:17;;;;;;;;;;;;;;;21.21;43.39;101624.03;5014162;28;19926;-87
2022/04/13 12:12:52;;;;;;;;;;;;;;;21.22;43.67;101622.09;5010653;28;20028;-85
2022/04/13 12:15:17;;;;;;;;;;;;;;;21.23;43.35;101621.81;4994017;28;20032;-88
2022/04/13 12:17:42;;;;;;;;;;;;;;;21.23;43.73;101630.06;5010094;28;20024;-83
2022/04/13 12:20:08;;;;;;;;;;;;;;;21.23;43.55;101618.25;5011113;28;19936;-87
2022/04/13 12:22:34;;;;;;;;;;;;;;;21.23;43.34;101624.56;5011331;28;20266;-87
2022/04/13 12:25:06;;;;;;;;;;;;;;;21.24;43.39;101617.13;5006508;28;20354;-85
2022/04/13 12:27:32;;;;;;;;;;;;;;;21.25;43.44;101624.28;5006560;28;19917;-83
2022/04/13 12:30:10;;;;;;;;;;;;;;;21.24;43.48;101612.44;5010039;28;20378;-85
2022/04/13 12:32:42;;;;;;;;;;;;;;;21.23;43.42;101616.31;5006155;28;19926;-84
2022/04/13 12:35:07;;;;;;;;;;;;;;;21.24;43.48;101609.69;5012511;28;19925;-84
2022/04/13 12:37:32;;;;;;;;;;;;;;;21.24;43.54;101620.69;5016895;28;20251;-83